createdAt,value
2018-07-31T00:01:22.638Z,100947.38
2018-07-31T00:03:49.696Z,100937.99
2018-07-31T00:06:17.680Z,100939.27
2018-07-31T00:08:45.019Z,100934.94
2018-07-31T00:11:12.408Z,100937.94
2018-07-31T00:13:39.696Z,100937.51
2018-07-31T00:16:06.772Z,100932.77
2018-07-31T00:18:33.843Z,100938.33
2018-07-31T00:21:01.173Z,100936.66
2018-07-31T00:23:28.431Z,100937.02
2018-07-31T00:25:55.480Z,100937.45
2018-07-31T00:28:22.552Z,100935.70
2018-07-31T00:30:49.879Z,100935.73
2018-07-31T00:33:16.949Z,100933.96
2018-07-31T00:35:44.168Z,100933.14
2018-07-31T00:38:11.120Z,100930.51
2018-07-31T00:40:38.601Z,100933.97
2018-07-31T00:43:05.623Z,100930.48
2018-07-31T00:45:32.610Z,100925.34
2018-07-31T00:47:59.584Z,100924.89
2018-07-31T00:50:27.125Z,100919.30
2018-07-31T00:52:54.272Z,100916.23
2018-07-31T00:55:21.250Z,100921.00
2018-07-31T00:57:48.344Z,100914.09
2018-07-31T01:00:15.363Z,100914.52
2018-07-31T01:02:42.769Z,100908.94
2018-07-31T01:05:10.172Z,100903.38
2018-07-31T01:07:37.381Z,100905.05
2018-07-31T01:10:04.651Z,100906.34
2018-07-31T01:12:31.839Z,100904.16
2018-07-31T01:14:59.264Z,100904.95
2018-07-31T01:17:26.273Z,100907.95
2018-07-31T01:19:53.337Z,100915.17
2018-07-31T01:22:20.635Z,100904.03
2018-07-31T01:24:47.902Z,100901.06
2018-07-31T01:27:14.908Z,100900.64
2018-07-31T01:29:42.080Z,100900.17
2018-07-31T01:32:09.230Z,100899.25
2018-07-31T01:34:36.229Z,100897.50
2018-07-31T01:37:03.311Z,100865.23
2018-07-31T01:39:30.483Z,100898.83
2018-07-31T01:41:57.628Z,100893.63
2018-07-31T01:44:24.706Z,100885.51
2018-07-31T01:46:51.786Z,100888.84
2018-07-31T01:49:18.786Z,100887.95
2018-07-31T01:51:45.860Z,100875.17
2018-07-31T01:54:12.924Z,100883.30
2018-07-31T01:56:40.024Z,100882.02
2018-07-31T01:59:07.202Z,100878.52
2018-07-31T02:01:34.220Z,100877.66
2018-07-31T02:04:01.327Z,100875.06
2018-07-31T02:06:28.336Z,100872.93
2018-07-31T02:08:56.479Z,100866.09
2018-07-31T02:11:24.343Z,100867.33
2018-07-31T02:13:51.851Z,100863.91
2018-07-31T02:16:18.946Z,100863.48
2018-07-31T02:18:45.956Z,100864.27
2018-07-31T02:21:12.975Z,100864.69
2018-07-31T02:23:40.195Z,100860.81
2018-07-31T02:26:07.168Z,100863.84
2018-07-31T02:28:34.215Z,100855.26
2018-07-31T02:31:01.331Z,100857.70
2018-07-31T02:33:28.317Z,100856.42
2018-07-31T02:35:55.312Z,100851.30
2018-07-31T02:38:22.324Z,100849.51
2018-07-31T02:40:49.414Z,100851.69
2018-07-31T02:43:16.438Z,100847.77
2018-07-31T02:45:43.424Z,100846.52
2018-07-31T02:48:10.493Z,100845.66
2018-07-31T02:50:37.482Z,100843.06
2018-07-31T02:53:04.686Z,100846.83
2018-07-31T02:55:31.915Z,100839.56
2018-07-31T02:57:58.911Z,100841.74
2018-07-31T03:00:26.879Z,100841.70
2018-07-31T03:02:53.901Z,100841.23
2018-07-31T03:05:20.892Z,100840.80
2018-07-31T03:07:47.902Z,100840.80
2018-07-31T03:10:14.911Z,100841.23
2018-07-31T03:12:41.935Z,100836.06
2018-07-31T03:15:10.120Z,100836.96
2018-07-31T03:17:37.163Z,100833.55
2018-07-31T03:20:04.836Z,100829.70
2018-07-31T03:22:31.835Z,100826.25
2018-07-31T03:24:58.831Z,100819.54
2018-07-31T03:27:25.835Z,100824.19
2018-07-31T03:29:52.823Z,100825.78
2018-07-31T03:32:19.976Z,100824.03
2018-07-31T03:34:46.992Z,100823.64
2018-07-31T03:37:13.976Z,100827.02
2018-07-31T03:39:41.159Z,100824.84
2018-07-31T03:42:08.184Z,100817.96
2018-07-31T03:44:35.203Z,100822.63
2018-07-31T03:47:02.259Z,100825.64
2018-07-31T03:49:29.312Z,100821.80
2018-07-31T03:51:56.319Z,100821.33
2018-07-31T03:54:23.318Z,100818.72
2018-07-31T03:56:50.291Z,100819.16
2018-07-31T03:59:17.331Z,100823.00
2018-07-31T04:01:44.391Z,100814.94
2018-07-31T04:04:11.392Z,100816.20
2018-07-31T04:06:38.496Z,100814.42
2018-07-31T04:09:08.223Z,100808.44
2018-07-31T04:11:35.271Z,100810.63
2018-07-31T04:14:02.356Z,100812.72
2018-07-31T04:16:29.334Z,100818.73
2018-07-31T04:18:56.301Z,100811.90
2018-07-31T04:21:23.323Z,100810.63
2018-07-31T04:23:50.332Z,100805.11
2018-07-31T04:26:17.414Z,100808.53
2018-07-31T04:28:44.415Z,100808.53
2018-07-31T04:31:11.399Z,100804.68
2018-07-31T04:33:38.471Z,100807.30
2018-07-31T04:36:05.550Z,100802.64
2018-07-31T04:38:32.515Z,100806.48
2018-07-31T04:40:59.567Z,100803.49
2018-07-31T04:43:27.374Z,100802.17
2018-07-31T04:45:54.385Z,100809.55
2018-07-31T04:48:21.447Z,100803.62
2018-07-31T04:50:48.939Z,100754.59
2018-07-31T04:53:15.924Z,100803.70
2018-07-31T04:55:43.162Z,100805.83
2018-07-31T04:58:10.735Z,100808.86
2018-07-31T05:00:37.808Z,100811.93
2018-07-31T05:03:04.795Z,100816.55
2018-07-31T05:05:31.791Z,100819.61
2018-07-31T05:07:58.872Z,100814.99
2018-07-31T05:10:25.876Z,100817.56
2018-07-31T05:12:52.951Z,100817.59
2018-07-31T05:15:19.968Z,100814.61
2018-07-31T05:17:46.947Z,100813.36
2018-07-31T05:20:16.139Z,100817.17
2018-07-31T05:22:43.149Z,100809.20
2018-07-31T05:25:10.193Z,100818.20
2018-07-31T05:27:37.140Z,100819.55
2018-07-31T05:30:06.236Z,100820.34
2018-07-31T05:32:33.234Z,100820.34
2018-07-31T05:35:00.288Z,100825.50
2018-07-31T05:37:27.335Z,100824.65
2018-07-31T05:39:54.344Z,100823.11
2018-07-31T05:42:21.322Z,100825.67
2018-07-31T05:44:48.715Z,100828.27
2018-07-31T05:47:15.687Z,100828.66
2018-07-31T05:49:42.746Z,100817.39
2018-07-31T05:52:09.767Z,100825.61
2018-07-31T05:54:36.844Z,100833.27
2018-07-31T05:57:03.850Z,100831.13
2018-07-31T05:59:30.846Z,100831.66
2018-07-31T06:01:57.948Z,100829.95
2018-07-31T06:04:25.407Z,100827.91
2018-07-31T06:06:52.481Z,100844.73
2018-07-31T06:09:19.467Z,100838.84
2018-07-31T06:11:46.453Z,100843.12
2018-07-31T06:14:13.458Z,100842.28
2018-07-31T06:16:40.546Z,100847.51
2018-07-31T06:19:07.907Z,100844.14
2018-07-31T06:21:34.896Z,100852.77
2018-07-31T06:24:02.591Z,100858.43
2018-07-31T06:26:29.583Z,100855.95
2018-07-31T06:28:56.631Z,100856.45
2018-07-31T06:31:23.717Z,100852.70
2018-07-31T06:33:50.704Z,100860.00
2018-07-31T06:36:17.723Z,100855.69
2018-07-31T06:38:44.739Z,100863.83
2018-07-31T06:41:11.827Z,100864.66
2018-07-31T06:43:38.811Z,100867.56
2018-07-31T06:46:05.778Z,100864.14
2018-07-31T06:48:33.269Z,100875.73
2018-07-31T06:51:00.286Z,100876.72
2018-07-31T06:53:27.283Z,100879.76
2018-07-31T06:55:54.295Z,100874.66
2018-07-31T06:58:21.275Z,100865.66
2018-07-31T07:00:48.941Z,100866.14
2018-07-31T07:03:16.041Z,100858.87
2018-07-31T07:05:43.072Z,100860.19
2018-07-31T07:08:10.223Z,100867.91
2018-07-31T07:10:37.335Z,100871.36
2018-07-31T07:13:04.350Z,100873.49
2018-07-31T07:15:31.441Z,100873.49
2018-07-31T07:17:58.476Z,100879.91
2018-07-31T07:20:26.598Z,100884.17
2018-07-31T07:22:54.826Z,100876.91
2018-07-31T07:25:23.163Z,100879.02
2018-07-31T07:27:51.569Z,100879.44
2018-07-31T07:30:19.619Z,100874.73
2018-07-31T07:32:47.818Z,100879.55
2018-07-31T07:35:15.958Z,100877.91
2018-07-31T07:37:44.094Z,100872.75
2018-07-31T07:40:12.141Z,100866.34
2018-07-31T07:42:40.385Z,100872.34
2018-07-31T07:45:09.183Z,100862.88
2018-07-31T07:47:37.489Z,100862.48
2018-07-31T07:50:04.626Z,100862.91
2018-07-31T07:52:31.623Z,100865.52
2018-07-31T07:54:58.595Z,100861.63
2018-07-31T07:57:25.886Z,100869.36
2018-07-31T07:59:52.973Z,100864.55
2018-07-31T08:02:19.980Z,100861.08
2018-07-31T08:04:47.095Z,100867.05
2018-07-31T08:07:14.259Z,100861.41
2018-07-31T08:09:41.287Z,100863.06
2018-07-31T08:12:08.264Z,100856.08
2018-07-31T08:14:35.247Z,100859.86
2018-07-31T08:17:02.743Z,100860.66
2018-07-31T08:19:29.827Z,100866.27
2018-07-31T08:21:56.884Z,100867.65
2018-07-31T08:24:24.195Z,100867.63
2018-07-31T08:26:51.199Z,100863.31
2018-07-31T08:29:18.194Z,100869.21
2018-07-31T08:31:45.199Z,100873.08
2018-07-31T08:34:12.370Z,100869.98
2018-07-31T08:36:39.392Z,100868.66
2018-07-31T08:39:07.808Z,100873.84
2018-07-31T08:41:36.380Z,100871.73
2018-07-31T08:44:03.744Z,100866.94
2018-07-31T08:46:30.735Z,100863.87
2018-07-31T08:48:57.716Z,100867.59
2018-07-31T08:51:24.885Z,100871.28
2018-07-31T08:53:51.915Z,100868.91
2018-07-31T08:56:19.025Z,100869.19
2018-07-31T08:58:46.125Z,100865.45
2018-07-31T09:01:13.167Z,100871.07
2018-07-31T09:03:40.364Z,100866.00
2018-07-31T09:06:07.392Z,100866.78
2018-07-31T09:08:34.487Z,100862.39
2018-07-31T09:11:01.876Z,100860.06
2018-07-31T09:13:28.956Z,100858.84
2018-07-31T09:15:56.013Z,100857.55
2018-07-31T09:18:23.015Z,100861.88
2018-07-31T09:20:50.235Z,100869.56
2018-07-31T09:23:17.312Z,100863.53
2018-07-31T09:25:44.340Z,100857.47
2018-07-31T09:28:11.403Z,100850.37
2018-07-31T09:30:43.074Z,100848.88
2018-07-31T09:33:10.191Z,100852.59
2018-07-31T09:35:37.260Z,100849.51
2018-07-31T09:38:04.553Z,100855.94
2018-07-31T09:40:31.692Z,100852.02
2018-07-31T09:42:58.809Z,100855.76
2018-07-31T09:45:25.998Z,100856.30
2018-07-31T09:47:53.133Z,100857.28
2018-07-31T09:50:20.232Z,100859.78
2018-07-31T09:52:47.360Z,100857.59
2018-07-31T09:55:14.401Z,100861.97
2018-07-31T09:57:41.437Z,100859.41
2018-07-31T10:00:08.651Z,100860.94
2018-07-31T10:02:35.767Z,100867.27
2018-07-31T10:05:02.962Z,100859.16
2018-07-31T10:07:29.953Z,100861.42
2018-07-31T10:09:56.982Z,100864.59
2018-07-31T10:12:23.995Z,100868.48
2018-07-31T10:14:51.016Z,100863.30
2018-07-31T10:17:18.052Z,100865.17
2018-07-31T10:19:45.094Z,100868.56
2018-07-31T10:22:12.124Z,100864.57
2018-07-31T10:24:39.406Z,100867.06
2018-07-31T10:27:06.394Z,100867.91
2018-07-31T10:29:33.431Z,100867.96
2018-07-31T10:32:00.468Z,100867.39
2018-07-31T10:34:27.560Z,100864.37
2018-07-31T10:36:54.671Z,100864.45
2018-07-31T10:39:22.034Z,100861.58
2018-07-31T10:41:49.124Z,100869.01
2018-07-31T10:44:16.219Z,100870.72
2018-07-31T10:46:43.311Z,100869.56
2018-07-31T10:49:10.528Z,100867.42
2018-07-31T10:51:37.618Z,100872.47
2018-07-31T10:54:04.666Z,100874.70
2018-07-31T10:56:31.765Z,100874.36
2018-07-31T10:58:58.904Z,100864.49
2018-07-31T11:01:25.984Z,100863.44
2018-07-31T11:03:53.038Z,100862.81
2018-07-31T11:06:20.174Z,100870.10
2018-07-31T11:08:47.112Z,100865.92
2018-07-31T11:11:14.223Z,100864.11
2018-07-31T11:13:41.243Z,100862.49
2018-07-31T11:16:08.344Z,100862.43
2018-07-31T11:18:35.495Z,100862.98
2018-07-31T11:21:02.588Z,100862.55
2018-07-31T11:23:29.615Z,100858.96
2018-07-31T11:25:56.776Z,100858.94
2018-07-31T11:28:24.097Z,100855.22
2018-07-31T11:30:51.152Z,100858.36
2018-07-31T11:33:18.179Z,100855.78
2018-07-31T11:35:45.232Z,100853.97
2018-07-31T11:38:12.459Z,100855.95
2018-07-31T11:40:39.499Z,100855.86
2018-07-31T11:43:06.535Z,100853.55
2018-07-31T11:45:33.676Z,100853.33
2018-07-31T11:48:00.718Z,100858.67
2018-07-31T11:50:27.719Z,100854.77
2018-07-31T11:52:54.771Z,100861.20
2018-07-31T11:55:21.930Z,100855.17
2018-07-31T11:57:48.992Z,100857.33
2018-07-31T12:00:16.199Z,100860.66
2018-07-31T12:02:43.213Z,100860.79
2018-07-31T12:05:10.238Z,100863.52
2018-07-31T12:07:37.451Z,100860.52
2018-07-31T12:10:05.013Z,100859.80
2018-07-31T12:12:32.044Z,100863.05
2018-07-31T12:14:59.095Z,100861.41
2018-07-31T12:17:26.187Z,100855.20
2018-07-31T12:19:53.232Z,100857.67
2018-07-31T12:22:20.494Z,100867.61
2018-07-31T12:24:47.515Z,100866.78
2018-07-31T12:27:14.599Z,100865.78
2018-07-31T12:29:41.637Z,100865.92
2018-07-31T12:32:08.687Z,100869.30
2018-07-31T12:34:35.678Z,100871.31
2018-07-31T12:37:02.785Z,100870.01
2018-07-31T12:39:29.816Z,100870.91
2018-07-31T12:41:56.848Z,100870.31
2018-07-31T12:44:23.879Z,100874.31
2018-07-31T12:46:50.981Z,100873.19
2018-07-31T12:49:18.080Z,100878.37
2018-07-31T12:51:45.163Z,100867.46
2018-07-31T12:54:12.287Z,100863.52
2018-07-31T12:56:39.687Z,100870.51
2018-07-31T12:59:06.697Z,100868.16
2018-07-31T13:01:33.767Z,100870.03
2018-07-31T13:04:01.081Z,100869.00
2018-07-31T13:06:28.187Z,100860.77
2018-07-31T13:08:55.244Z,100866.34
2018-07-31T13:11:22.388Z,100864.94
2018-07-31T13:13:49.421Z,100859.98
2018-07-31T13:16:16.451Z,100850.95
2018-07-31T13:18:43.599Z,100856.04
2018-07-31T13:21:10.628Z,100853.48
2018-07-31T13:23:37.623Z,100851.71
2018-07-31T13:26:04.843Z,100852.77
2018-07-31T13:28:33.148Z,100858.05
2018-07-31T13:31:00.167Z,100859.34
2018-07-31T13:33:27.171Z,100863.02
2018-07-31T13:35:54.192Z,100857.47
2018-07-31T13:38:21.317Z,100857.22
2018-07-31T13:40:48.393Z,100863.64
2018-07-31T13:43:15.488Z,100861.42
2018-07-31T13:45:42.726Z,100860.57
2018-07-31T13:48:09.790Z,100856.52
2018-07-31T13:50:37.007Z,100854.43
2018-07-31T13:53:04.032Z,100854.72
2018-07-31T13:55:32.369Z,100844.48
2018-07-31T13:57:59.437Z,100853.80
2018-07-31T14:00:26.731Z,100850.29
2018-07-31T14:02:53.824Z,100852.66
2018-07-31T14:05:20.928Z,100855.09
2018-07-31T14:07:47.943Z,100854.95
2018-07-31T14:10:15.027Z,100848.20
2018-07-31T14:12:42.055Z,100849.52
2018-07-31T14:15:09.155Z,100847.57
2018-07-31T14:17:36.191Z,100852.38
2018-07-31T14:20:03.319Z,100848.52
2018-07-31T14:22:30.324Z,100847.04
2018-07-31T14:24:57.384Z,100851.31
2018-07-31T14:27:24.476Z,100850.81
2018-07-31T14:29:51.587Z,100850.42
2018-07-31T14:32:19.679Z,100852.36
2018-07-31T14:34:46.689Z,100849.68
2018-07-31T14:37:13.780Z,100855.88
2018-07-31T14:39:40.834Z,100847.02
2018-07-31T14:42:08.071Z,100843.94
2018-07-31T14:44:35.090Z,100851.70
2018-07-31T14:47:02.121Z,100847.24
2018-07-31T14:49:29.147Z,100845.08
2018-07-31T14:51:56.231Z,100847.30
2018-07-31T14:54:23.368Z,100836.19
2018-07-31T14:56:50.415Z,100844.32
2018-07-31T14:59:17.576Z,100845.48
2018-07-31T15:01:45.443Z,100846.64
2018-07-31T15:04:12.621Z,100843.82
2018-07-31T15:06:39.754Z,100843.52
2018-07-31T15:09:08.924Z,100850.53
2018-07-31T15:11:36.323Z,100849.22
2018-07-31T15:14:03.684Z,100847.56
2018-07-31T15:16:30.847Z,100849.84
2018-07-31T15:18:57.846Z,100851.05
2018-07-31T15:21:24.876Z,100850.22
2018-07-31T15:23:51.881Z,100855.91
2018-07-31T15:26:18.963Z,100850.70
2018-07-31T15:28:45.980Z,100850.95
2018-07-31T15:31:12.968Z,100856.32
2018-07-31T15:33:39.996Z,100852.33
2018-07-31T15:36:07.105Z,100851.81
2018-07-31T15:38:34.130Z,100854.63
2018-07-31T15:41:01.129Z,100849.97
2018-07-31T15:43:28.155Z,100844.84
2018-07-31T15:45:55.177Z,100848.41
2018-07-31T15:48:22.195Z,100856.02
2018-07-31T15:50:49.309Z,100855.95
2018-07-31T15:53:16.303Z,100860.45
2018-07-31T15:55:43.323Z,100854.47
2018-07-31T15:58:10.442Z,100854.90
2018-07-31T16:00:37.433Z,100858.74
2018-07-31T16:03:04.498Z,100858.59
2018-07-31T16:05:32.633Z,100867.03
2018-07-31T16:07:59.697Z,100868.61
2018-07-31T16:10:26.687Z,100866.22
2018-07-31T16:12:53.723Z,100879.59
2018-07-31T16:15:20.747Z,100870.30
2018-07-31T16:17:48.064Z,100871.48
2018-07-31T16:20:15.419Z,100873.99
2018-07-31T16:22:42.514Z,100877.59
2018-07-31T16:25:10.679Z,100875.27
2018-07-31T16:27:37.801Z,100881.55
2018-07-31T16:30:05.004Z,100881.37
2018-07-31T16:32:32.061Z,100880.91
2018-07-31T16:34:59.168Z,100879.91
2018-07-31T16:37:26.181Z,100891.34
2018-07-31T16:39:53.203Z,100883.36
2018-07-31T16:42:20.409Z,100888.21
2018-07-31T16:44:47.502Z,100889.98
2018-07-31T16:47:14.523Z,100899.29
2018-07-31T16:49:41.535Z,100905.41
2018-07-31T16:52:08.710Z,100923.09
2018-07-31T16:54:35.701Z,100927.16
2018-07-31T16:57:02.828Z,100932.70
2018-07-31T16:59:29.735Z,100935.50
2018-07-31T17:01:56.741Z,100938.61
2018-07-31T17:04:23.746Z,100959.77
2018-07-31T17:06:51.073Z,100955.48
2018-07-31T17:09:18.155Z,100964.59
2018-07-31T17:11:45.953Z,100970.20
2018-07-31T17:14:13.076Z,100967.59
2018-07-31T17:16:40.109Z,100974.36
2018-07-31T17:19:07.174Z,100983.38
2018-07-31T17:21:34.285Z,100988.98
2018-07-31T17:24:01.403Z,100990.45
2018-07-31T17:26:28.508Z,100997.41
2018-07-31T17:28:55.505Z,100994.08
2018-07-31T17:31:22.524Z,100999.27
2018-07-31T17:33:49.512Z,101000.16
2018-07-31T17:36:16.615Z,100991.57
2018-07-31T17:38:43.595Z,100997.14
2018-07-31T17:41:10.580Z,101001.06
2018-07-31T17:43:38.551Z,101012.24
2018-07-31T17:46:05.574Z,101001.06
2018-07-31T17:48:32.631Z,101021.30
2018-07-31T17:50:59.615Z,101025.58
2018-07-31T17:53:26.686Z,101035.50
2018-07-31T17:55:53.711Z,101034.63
2018-07-31T17:58:20.752Z,101042.80
2018-07-31T18:00:47.732Z,101041.95
2018-07-31T18:03:14.756Z,101049.27
2018-07-31T18:05:41.776Z,101050.14
2018-07-31T18:08:08.791Z,101061.69
2018-07-31T18:10:35.905Z,101058.27
2018-07-31T18:13:03.007Z,101068.53
2018-07-31T18:15:30.320Z,101066.82
2018-07-31T18:17:57.307Z,101076.24
2018-07-31T18:20:24.328Z,101078.36
2018-07-31T18:22:51.488Z,101081.78
2018-07-31T18:25:18.481Z,101085.63
2018-07-31T18:27:45.510Z,101086.43
2018-07-31T18:30:12.644Z,101092.00
2018-07-31T18:32:39.627Z,101097.96
2018-07-31T18:35:06.780Z,101106.09
2018-07-31T18:37:33.761Z,101115.50
2018-07-31T18:40:01.185Z,101107.30
2018-07-31T18:42:28.413Z,101111.92
2018-07-31T18:44:55.471Z,101112.32
2018-07-31T18:47:22.835Z,101120.85
2018-07-31T18:49:49.853Z,101125.52
2018-07-31T18:52:16.839Z,101124.99
2018-07-31T18:54:44.279Z,101124.09
2018-07-31T18:57:11.276Z,101134.34
2018-07-31T18:59:38.486Z,101140.67
2018-07-31T19:02:05.547Z,101146.55
2018-07-31T19:04:32.570Z,101156.50
2018-07-31T19:06:59.578Z,101148.76
2018-07-31T19:09:26.583Z,101153.77
2018-07-31T19:11:53.609Z,101157.16
2018-07-31T19:14:20.861Z,101149.45
2018-07-31T19:16:47.971Z,101166.16
2018-07-31T19:19:14.959Z,101164.27
2018-07-31T19:21:42.091Z,101158.17
2018-07-31T19:24:09.153Z,101160.66
2018-07-31T19:26:36.877Z,101154.12
2018-07-31T19:29:04.308Z,101160.55
2018-07-31T19:31:31.449Z,101162.17
2018-07-31T19:33:58.478Z,101158.28
2018-07-31T19:36:25.515Z,101165.94
2018-07-31T19:38:52.772Z,101173.64
2018-07-31T19:41:19.905Z,101166.79
2018-07-31T19:43:47.267Z,101170.98
2018-07-31T19:46:14.347Z,101170.42
2018-07-31T19:48:41.506Z,101170.38
2018-07-31T19:51:08.595Z,101169.95
2018-07-31T19:53:35.676Z,101181.75
2018-07-31T19:56:03.164Z,101187.78
2018-07-31T19:58:30.479Z,101179.95
2018-07-31T20:00:57.843Z,101188.34
2018-07-31T20:03:24.975Z,101185.25
2018-07-31T20:05:52.021Z,101199.21
2018-07-31T20:08:19.137Z,101194.45
2018-07-31T20:10:49.154Z,101193.96
2018-07-31T20:13:16.234Z,101190.66
2018-07-31T20:15:43.280Z,101199.04
2018-07-31T20:18:10.511Z,101198.88
2018-07-31T20:20:37.667Z,101207.58
2018-07-31T20:23:04.727Z,101199.72
2018-07-31T20:25:32.064Z,101215.22
2018-07-31T20:27:59.080Z,101222.25
2018-07-31T20:30:26.204Z,101220.34
2018-07-31T20:32:53.281Z,101227.58
2018-07-31T20:35:20.304Z,101228.57
2018-07-31T20:37:47.520Z,101229.47
2018-07-31T20:40:14.580Z,101226.91
2018-07-31T20:42:41.625Z,101231.62
2018-07-31T20:45:08.863Z,101237.22
2018-07-31T20:47:35.912Z,101227.24
2018-07-31T20:50:03.359Z,101246.80
2018-07-31T20:52:30.444Z,101251.06
2018-07-31T20:54:57.476Z,101252.30
2018-07-31T20:57:24.507Z,101255.21
2018-07-31T20:59:51.978Z,101265.03
2018-07-31T21:02:18.932Z,101279.12
2018-07-31T21:04:45.959Z,101273.86
2018-07-31T21:07:13.164Z,101275.91
2018-07-31T21:09:40.196Z,101284.88
2018-07-31T21:12:07.270Z,101286.83
2018-07-31T21:14:34.679Z,101286.31
2018-07-31T21:17:01.752Z,101283.69
2018-07-31T21:19:28.794Z,101288.00
2018-07-31T21:21:55.852Z,101290.56
2018-07-31T21:24:23.784Z,101284.87
2018-07-31T21:26:50.828Z,101286.95
2018-07-31T21:29:18.201Z,101292.63
2018-07-31T21:31:45.219Z,101295.63
2018-07-31T21:34:12.251Z,101303.05
2018-07-31T21:36:40.459Z,101307.30
2018-07-31T21:39:09.501Z,101306.31
2018-07-31T21:41:36.529Z,101310.56
2018-07-31T21:44:03.528Z,101316.95
2018-07-31T21:46:30.559Z,101321.93
2018-07-31T21:48:57.741Z,101317.56
2018-07-31T21:51:24.751Z,101312.37
2018-07-31T21:53:51.804Z,101320.05
2018-07-31T21:56:18.863Z,101320.58
2018-07-31T21:58:45.908Z,101321.27
2018-07-31T22:01:13.028Z,101321.13
2018-07-31T22:03:40.063Z,101323.61
2018-07-31T22:06:07.487Z,101337.75
2018-07-31T22:08:35.140Z,101335.88
2018-07-31T22:11:02.231Z,101334.23
2018-07-31T22:13:29.319Z,101320.97
2018-07-31T22:15:56.337Z,101316.78
2018-07-31T22:18:23.353Z,101325.30
2018-07-31T22:20:50.497Z,101312.91
2018-07-31T22:23:17.672Z,101312.72
2018-07-31T22:25:44.849Z,101311.36
2018-07-31T22:28:11.871Z,101316.41
2018-07-31T22:30:38.886Z,101324.92
2018-07-31T22:35:32.594Z,101326.22
2018-07-31T22:37:59.587Z,101331.84
2018-07-31T22:40:26.586Z,101339.22
2018-07-31T22:42:55.321Z,101346.14
2018-07-31T22:45:23.659Z,101350.28
2018-07-31T22:47:50.995Z,101345.50
2018-07-31T22:50:18.011Z,101330.52
2018-07-31T22:52:45.119Z,101325.91
2018-07-31T22:55:12.079Z,101325.67
2018-07-31T22:57:39.187Z,101327.92
2018-07-31T23:00:06.515Z,101334.84
2018-07-31T23:02:33.749Z,101338.14
2018-07-31T23:05:00.756Z,101335.34
2018-07-31T23:07:28.101Z,101332.20
2018-07-31T23:09:56.036Z,101324.44
2018-07-31T23:12:23.051Z,101323.02
2018-07-31T23:14:50.215Z,101333.62
2018-07-31T23:17:17.463Z,101328.63
2018-07-31T23:19:44.839Z,101330.73
2018-07-31T23:22:12.262Z,101331.27
2018-07-31T23:24:40.189Z,101335.33
2018-07-31T23:27:07.874Z,101328.11
2018-07-31T23:29:35.261Z,101333.30
2018-07-31T23:32:03.165Z,101330.84
2018-07-31T23:34:31.334Z,101333.84
2018-07-31T23:36:58.567Z,101340.00
2018-07-31T23:39:26.052Z,101332.98
2018-07-31T23:41:53.332Z,101329.25
2018-07-31T23:44:20.323Z,101330.74
2018-07-31T23:46:47.332Z,101330.97
2018-07-31T23:49:14.334Z,101333.23
2018-07-31T23:51:41.345Z,101338.43
2018-07-31T23:54:08.453Z,101345.77
2018-07-31T23:56:35.431Z,101351.73
2018-07-31T23:59:02.711Z,101351.30
